Time;durP1;ratioP1;P1;durP2;ratioP2;P2;SDS_P1;SDS_P2;PMS_P1;PMS_P2;Temp;Humidity;BMP_temperature;BMP_pressure;BME280_temperature;BME280_humidity;BME280_pressure;Samples;Min_cycle;Max_cycle;Signal;HPM_P1;HPM_P2
2023/04/30 00:00:16;;;;;;;8.40;2.72;;;5.40;83.90;;;;;;5040440;28;20041;-45
2023/04/30 00:02:43;;;;;;;5.53;2.90;;;5.40;84.00;;;;;;5016782;28;20036;-44
2023/04/30 00:05:10;;;;;;;10.00;3.13;;;5.40;83.80;;;;;;5034224;28;20069;-45
2023/04/30 00:07:41;;;;;;;9.55;3.13;;;5.40;84.00;;;;;;5031393;28;20060;-47
2023/04/30 00:10:09;;;;;;;6.82;2.72;;;5.40;84.00;;;;;;5062295;28;20178;-44
2023/04/30 00:12:37;;;;;;;6.80;3.13;;;5.40;83.90;;;;;;5038554;28;20057;-49
2023/04/30 00:15:03;;;;;;;13.98;3.20;;;5.40;84.00;;;;;;5051188;28;20037;-45
2023/04/30 00:17:30;;;;;;;6.95;3.33;;;5.40;84.00;;;;;;5037528;28;20343;-44
2023/04/30 00:20:11;;;;;;;7.30;3.38;;;5.30;84.00;;;;;;5033787;28;20029;-45
2023/04/30 00:22:37;;;;;;;6.72;2.92;;;5.30;84.30;;;;;;5034053;28;20036;-46
2023/04/30 00:25:04;;;;;;;7.70;3.35;;;5.20;84.40;;;;;;5048289;28;20132;-44
2023/04/30 00:27:31;;;;;;;7.22;3.22;;;5.20;84.20;;;;;;5050041;28;20029;-45
2023/04/30 00:29:58;;;;;;;10.30;3.35;;;5.10;84.40;;;;;;5055685;28;20834;-44
2023/04/30 00:32:25;;;;;;;8.65;2.47;;;5.10;84.60;;;;;;5048002;28;20486;-47
2023/04/30 00:34:50;;;;;;;11.20;2.90;;;5.10;84.60;;;;;;5051157;28;20025;-48
2023/04/30 00:37:18;;;;;;;10.02;2.97;;;5.10;84.70;;;;;;5073705;28;20055;-43
2023/04/30 00:39:48;;;;;;;4.10;2.38;;;5.00;84.80;;;;;;5070052;28;20040;-44
2023/04/30 00:42:15;;;;;;;5.47;3.20;;;5.00;84.80;;;;;;5070120;28;20039;-44
2023/04/30 00:44:42;;;;;;;10.77;4.20;;;4.90;85.00;;;;;;5059167;28;20036;-45
2023/04/30 00:47:10;;;;;;;7.45;2.72;;;4.90;85.00;;;;;;5070614;28;20040;-47
2023/04/30 00:49:39;;;;;;;7.55;2.88;;;4.90;85.10;;;;;;5072617;28;20025;-47
2023/04/30 00:52:06;;;;;;;5.28;3.10;;;4.80;85.30;;;;;;5073539;28;20029;-46
2023/04/30 00:54:32;;;;;;;6.28;2.92;;;4.70;85.20;;;;;;5022663;28;20037;-49
2023/04/30 00:56:58;;;;;;;8.57;3.55;;;4.70;85.30;;;;;;5052475;28;20041;-48
2023/04/30 00:59:26;;;;;;;8.25;3.70;;;4.70;85.40;;;;;;5055771;28;20032;-48
2023/04/30 01:01:55;;;;;;;8.13;3.13;;;4.70;85.70;;;;;;5069857;28;20025;-48
2023/04/30 01:04:22;;;;;;;12.05;3.53;;;4.70;85.50;;;;;;5068317;28;20033;-48
2023/04/30 01:06:50;;;;;;;9.70;4.10;;;4.70;85.50;;;;;;5054648;28;20467;-43
2023/04/30 01:09:20;;;;;;;5.53;3.22;;;4.60;85.50;;;;;;5036490;28;20135;-43
2023/04/30 01:12:24;;;;;;;9.63;4.00;;;4.60;85.80;;;;;;5033072;28;20057;-45
2023/04/30 01:15:19;;;;;;;9.25;3.70;;;4.60;85.60;;;;;;5003193;28;20032;-44
2023/04/30 01:18:22;;;;;;;10.57;3.63;;;4.50;85.80;;;;;;5032973;28;20046;-43
2023/04/30 01:20:58;;;;;;;10.68;3.45;;;4.50;85.90;;;;;;5032930;28;20037;-43
2023/04/30 01:23:34;;;;;;;7.95;2.90;;;4.40;86.20;;;;;;5015427;28;20036;-45
2023/04/30 01:26:34;;;;;;;11.48;3.75;;;4.40;86.30;;;;;;5032961;28;20025;-44
2023/04/30 01:29:04;;;;;;;9.13;3.70;;;4.40;86.40;;;;;;5043693;28;20041;-44
2023/04/30 01:31:31;;;;;;;10.02;3.45;;;4.40;86.60;;;;;;5050506;28;20191;-43
2023/04/30 01:33:56;;;;;;;11.77;3.90;;;4.40;86.60;;;;;;5060135;28;20052;-44
2023/04/30 01:36:43;;;;;;;6.28;4.05;;;4.40;86.50;;;;;;5072922;28;20442;-43
2023/04/30 01:39:41;;;;;;;11.30;4.13;;;4.40;86.60;;;;;;5072809;28;20334;-43
2023/04/30 01:42:22;;;;;;;6.75;3.67;;;4.30;86.60;;;;;;5059574;28;20513;-44
2023/04/30 01:45:15;;;;;;;11.43;3.88;;;4.30;86.80;;;;;;5048716;28;20482;-44
2023/04/30 01:48:12;;;;;;;7.65;4.35;;;4.30;86.80;;;;;;5072674;28;20361;-43
2023/04/30 01:50:46;;;;;;;9.90;4.30;;;4.20;86.70;;;;;;5068175;28;20040;-43
2023/04/30 01:53:21;;;;;;;13.05;4.22;;;4.20;86.80;;;;;;5035054;28;20506;-42
2023/04/30 01:56:03;;;;;;;7.63;3.85;;;4.20;86.90;;;;;;5036810;28;20029;-44
2023/04/30 01:58:34;;;;;;;12.38;4.82;;;4.20;86.80;;;;;;5048914;28;20028;-44
2023/04/30 02:01:02;;;;;;;9.90;4.57;;;4.10;86.80;;;;;;5032672;28;20033;-46
2023/04/30 02:03:31;;;;;;;7.70;4.18;;;4.10;87.00;;;;;;5033034;28;20131;-45
2023/04/30 02:05:58;;;;;;;7.55;4.35;;;4.10;87.10;;;;;;5056671;28;20045;-42
2023/04/30 02:08:26;;;;;;;8.93;4.85;;;4.10;87.10;;;;;;5038342;28;20033;-44
2023/04/30 02:10:53;;;;;;;9.68;5.07;;;4.10;87.00;;;;;;5043581;28;20382;-44
2023/04/30 02:13:23;;;;;;;9.52;5.25;;;4.00;87.10;;;;;;5059007;28;20039;-43
2023/04/30 02:15:48;;;;;;;8.75;4.10;;;4.00;87.10;;;;;;5072047;28;20433;-44
2023/04/30 02:18:16;;;;;;;7.15;4.25;;;4.00;87.10;;;;;;5054615;28;20124;-48
2023/04/30 02:20:42;;;;;;;9.38;5.15;;;4.00;87.10;;;;;;5054958;28;20025;-46
2023/04/30 02:23:09;;;;;;;8.30;4.72;;;4.00;87.10;;;;;;5048299;28;20029;-46
2023/04/30 02:25:37;;;;;;;12.13;5.10;;;3.90;87.10;;;;;;5075973;28;20461;-42
2023/04/30 02:28:08;;;;;;;11.35;5.20;;;3.90;87.20;;;;;;5070792;28;20036;-45
2023/04/30 02:30:34;;;;;;;11.15;5.28;;;3.90;87.30;;;;;;5038591;28;20036;-42
2023/04/30 02:33:02;;;;;;;8.93;5.70;;;3.90;87.40;;;;;;5057316;28;20024;-46
2023/04/30 02:35:29;;;;;;;11.25;5.82;;;3.90;87.50;;;;;;5075969;28;20024;-44
2023/04/30 02:37:56;;;;;;;10.98;7.07;;;3.90;87.70;;;;;;5074788;28;20484;-42
2023/04/30 02:40:21;;;;;;;11.88;5.30;;;3.90;87.70;;;;;;5062118;28;20033;-44
2023/04/30 02:42:50;;;;;;;10.43;5.20;;;3.90;87.40;;;;;;5064417;28;20037;-43
2023/04/30 02:45:15;;;;;;;11.27;4.72;;;3.80;87.40;;;;;;5053766;28;20024;-44
2023/04/30 02:47:47;;;;;;;9.50;5.13;;;3.80;87.20;;;;;;5022192;28;20451;-43
2023/04/30 02:50:15;;;;;;;6.32;4.53;;;3.80;87.40;;;;;;5035928;28;20409;-45
2023/04/30 02:52:46;;;;;;;10.13;4.47;;;3.80;87.40;;;;;;5040202;28;20025;-43
2023/04/30 02:55:12;;;;;;;11.82;4.75;;;3.70;87.30;;;;;;5058168;28;20358;-47
2023/04/30 02:57:44;;;;;;;7.45;4.90;;;3.70;87.40;;;;;;5075255;28;20033;-48
2023/04/30 03:00:13;;;;;;;7.22;4.13;;;3.70;87.50;;;;;;5044946;28;20347;-45
2023/04/30 03:02:40;;;;;;;8.73;4.03;;;3.70;87.50;;;;;;5074453;28;20032;-43
2023/04/30 03:05:08;;;;;;;11.30;4.55;;;3.70;87.50;;;;;;5075291;28;20028;-43
2023/04/30 03:07:33;;;;;;;6.38;4.32;;;3.70;87.70;;;;;;5063604;28;20045;-47
2023/04/30 03:09:59;;;;;;;11.57;4.40;;;3.60;87.60;;;;;;5073259;28;20027;-42
2023/04/30 03:12:26;;;;;;;9.15;3.60;;;3.60;87.60;;;;;;5074740;28;20430;-43
2023/04/30 03:14:52;;;;;;;12.18;5.15;;;3.60;87.70;;;;;;5047588;28;20051;-45
2023/04/30 03:17:21;;;;;;;7.35;4.20;;;3.60;87.80;;;;;;5054993;28;20478;-43
2023/04/30 03:19:46;;;;;;;7.55;4.65;;;3.60;87.80;;;;;;5040587;28;20056;-46
2023/04/30 03:22:14;;;;;;;10.73;5.10;;;3.50;87.70;;;;;;5034767;28;20096;-42
2023/04/30 03:24:44;;;;;;;11.70;4.78;;;3.60;87.60;;;;;;5067766;28;20361;-42
2023/04/30 03:27:13;;;;;;;8.15;3.97;;;3.50;87.60;;;;;;5075048;28;20334;-44
2023/04/30 03:29:45;;;;;;;10.82;4.80;;;3.50;87.60;;;;;;5056480;28;20347;-43
2023/04/30 03:32:12;;;;;;;11.20;4.22;;;3.50;87.70;;;;;;5070184;28;20036;-43
2023/04/30 03:34:38;;;;;;;11.80;5.38;;;3.50;87.70;;;;;;5062263;28;20025;-43
2023/04/30 03:37:06;;;;;;;8.65;4.13;;;3.50;87.50;;;;;;5034440;28;20034;-42
2023/04/30 03:39:32;;;;;;;11.10;4.60;;;3.50;87.50;;;;;;5034421;28;20083;-43
2023/04/30 03:42:02;;;;;;;9.20;4.78;;;3.40;87.50;;;;;;5070166;28;20140;-42
2023/04/30 03:44:28;;;;;;;;;;;3.50;87.80;;;;;;5054370;28;20112;-44
2023/04/30 03:46:57;;;;;;;9.68;4.57;;;3.40;87.60;;;;;;5036177;28;20310;-43
2023/04/30 03:49:24;;;;;;;11.05;5.22;;;3.40;87.80;;;;;;5033833;28;20044;-43
2023/04/30 03:51:51;;;;;;;7.07;4.35;;;3.40;88.00;;;;;;5060497;28;20029;-43
2023/04/30 03:54:18;;;;;;;9.90;5.07;;;3.40;88.10;;;;;;5020519;28;20120;-42
2023/04/30 03:56:43;;;;;;;8.30;5.03;;;3.40;88.10;;;;;;5053703;28;20355;-42
2023/04/30 03:59:12;;;;;;;11.20;4.97;;;3.40;88.10;;;;;;5026495;28;20036;-42
2023/04/30 04:01:40;;;;;;;11.10;5.00;;;3.40;88.10;;;;;;5028099;28;20036;-43
2023/04/30 04:04:08;;;;;;;11.55;5.10;;;3.40;88.20;;;;;;5054399;28;20029;-44
2023/04/30 04:06:34;;;;;;;10.30;4.07;;;3.40;88.30;;;;;;5062223;28;20056;-43
2023/04/30 04:09:00;;;;;;;8.13;4.57;;;3.40;88.30;;;;;;5038018;28;20025;-43
2023/04/30 04:11:26;;;;;;;12.35;5.55;;;3.40;88.40;;;;;;5034139;28;20104;-42
2023/04/30 04:13:55;;;;;;;13.88;5.10;;;3.40;88.60;;;;;;5033791;28;20100;-42
2023/04/30 04:16:22;;;;;;;;;;;3.40;88.40;;;;;;5034329;28;20040;-45
2023/04/30 04:18:48;;;;;;;9.98;5.03;;;3.40;88.30;;;;;;5030880;28;19952;-42
2023/04/30 04:21:15;;;;;;;10.73;4.68;;;3.40;88.20;;;;;;5016057;28;20025;-43
2023/04/30 04:23:42;;;;;;;9.88;4.25;;;3.40;88.20;;;;;;4997447;28;20044;-44
2023/04/30 04:26:09;;;;;;;11.90;6.22;;;3.40;88.20;;;;;;5010949;28;20091;-42
2023/04/30 04:28:36;;;;;;;10.13;5.20;;;3.40;88.30;;;;;;5031612;28;20332;-43
2023/04/30 04:31:03;;;;;;;6.82;4.65;;;3.50;88.40;;;;;;5023068;28;20030;-42
2023/04/30 04:33:30;;;;;;;8.10;5.03;;;3.50;88.40;;;;;;5013865;28;20115;-45
2023/04/30 04:35:58;;;;;;;11.45;5.55;;;3.50;88.30;;;;;;5030194;28;20030;-42
2023/04/30 04:38:25;;;;;;;8.82;5.50;;;3.60;88.30;;;;;;5033914;28;20039;-43
2023/04/30 04:40:56;;;;;;;9.32;6.32;;;3.70;88.30;;;;;;5033935;28;20092;-42
2023/04/30 04:43:23;;;;;;;7.68;4.70;;;3.80;88.20;;;;;;5027325;28;20037;-44
2023/04/30 04:45:53;;;;;;;13.45;6.47;;;3.80;87.90;;;;;;5023394;28;20113;-42
2023/04/30 04:48:22;;;;;;;7.80;5.57;;;3.80;87.90;;;;;;5024623;28;20037;-42
2023/04/30 04:50:49;;;;;;;12.80;6.00;;;3.90;87.90;;;;;;5031757;28;20037;-43
2023/04/30 04:53:16;;;;;;;9.65;6.40;;;3.90;87.90;;;;;;5016173;28;20490;-43
2023/04/30 04:55:46;;;;;;;15.50;6.90;;;4.00;87.80;;;;;;5031987;28;20179;-42
2023/04/30 04:58:13;;;;;;;7.20;6.20;;;4.10;87.80;;;;;;5029357;28;20469;-42
2023/04/30 05:00:40;;;;;;;11.77;5.78;;;4.30;87.70;;;;;;5039372;28;20036;-42
2023/04/30 05:03:09;;;;;;;11.68;6.47;;;4.30;87.30;;;;;;5025237;28;20084;-43
2023/04/30 05:05:35;;;;;;;11.53;7.93;;;4.40;87.50;;;;;;5026822;28;20040;-43
2023/04/30 05:08:02;;;;;;;13.68;6.90;;;4.60;87.20;;;;;;5033640;28;20029;-42
2023/04/30 05:10:29;;;;;;;9.60;5.80;;;4.80;86.90;;;;;;5015632;28;20053;-42
2023/04/30 05:12:55;;;;;;;8.30;5.22;;;5.00;86.70;;;;;;5039432;28;20041;-43
2023/04/30 05:15:22;;;;;;;14.00;6.13;;;5.30;86.30;;;;;;5040006;28;20441;-46
2023/04/30 05:17:48;;;;;;;9.30;5.68;;;5.50;85.40;;;;;;5026197;28;20124;-43
2023/04/30 05:20:14;;;;;;;8.13;4.97;;;5.80;85.30;;;;;;5028018;28;20057;-44
2023/04/30 05:22:40;;;;;;;9.38;4.85;;;6.10;85.10;;;;;;5054622;28;20033;-42
2023/04/30 05:25:06;;;;;;;6.40;4.38;;;6.40;84.70;;;;;;5067595;28;20450;-43
2023/04/30 05:27:34;;;;;;;6.72;3.90;;;6.50;84.10;;;;;;5037069;28;20029;-43
2023/04/30 05:30:00;;;;;;;6.70;4.00;;;6.70;83.50;;;;;;5017777;28;20426;-44
2023/04/30 05:32:26;;;;;;;8.30;3.88;;;6.90;82.90;;;;;;5067914;28;20043;-43
2023/04/30 05:34:54;;;;;;;7.80;3.35;;;7.10;82.70;;;;;;5072790;28;20111;-46
2023/04/30 05:37:21;;;;;;;7.03;3.63;;;7.30;82.30;;;;;;5070360;28;20108;-43
2023/04/30 05:39:52;;;;;;;8.10;3.97;;;7.50;81.90;;;;;;5039988;28;20040;-46
2023/04/30 05:42:19;;;;;;;7.47;3.72;;;7.60;81.50;;;;;;5044623;28;20032;-47
2023/04/30 05:44:45;;;;;;;7.00;3.58;;;7.80;81.00;;;;;;5038918;28;20029;-48
2023/04/30 05:47:12;;;;;;;7.68;3.30;;;7.90;80.80;;;;;;5028011;28;20076;-45
2023/04/30 05:49:39;;;;;;;8.88;4.93;;;8.00;80.50;;;;;;5076670;28;20372;-44
2023/04/30 05:52:06;;;;;;;7.43;3.67;;;8.10;80.00;;;;;;5040602;28;20086;-44
2023/04/30 05:54:32;;;;;;;10.63;5.85;;;8.30;80.10;;;;;;5073845;28;20036;-44
2023/04/30 05:56:57;;;;;;;8.88;4.68;;;8.40;79.50;;;;;;5052117;28;20032;-44
2023/04/30 05:59:25;;;;;;;8.05;3.60;;;8.50;78.60;;;;;;5036485;28;20029;-43
2023/04/30 06:01:53;;;;;;;6.18;3.90;;;8.60;79.50;;;;;;5059414;28;20509;-45
2023/04/30 06:04:22;;;;;;;9.85;3.15;;;8.70;79.10;;;;;;5076686;28;20045;-44
2023/04/30 06:06:50;;;;;;;7.28;2.75;;;8.70;79.40;;;;;;5071012;28;20041;-44
2023/04/30 06:09:18;;;;;;;9.35;4.28;;;8.70;79.20;;;;;;5072201;28;20527;-45
2023/04/30 06:11:49;;;;;;;5.53;3.13;;;8.70;79.50;;;;;;5065096;28;20040;-46
2023/04/30 06:14:16;;;;;;;6.55;3.53;;;8.80;79.40;;;;;;5056307;28;20457;-45
2023/04/30 06:16:44;;;;;;;9.18;3.65;;;8.80;79.40;;;;;;5045715;28;20032;-45
2023/04/30 06:19:10;;;;;;;10.68;4.05;;;8.80;79.10;;;;;;5058646;28;20034;-44
2023/04/30 06:21:36;;;;;;;7.50;3.10;;;8.80;79.10;;;;;;5057052;28;20025;-46
2023/04/30 06:24:09;;;;;;;7.25;3.08;;;8.80;79.30;;;;;;5069599;28;20024;-44
2023/04/30 06:26:36;;;;;;;8.50;3.58;;;8.80;78.60;;;;;;5053200;28;20033;-45
2023/04/30 06:29:02;;;;;;;10.07;3.10;;;8.80;79.20;;;;;;5040203;28;20075;-47
2023/04/30 06:31:30;;;;;;;6.85;2.95;;;8.80;78.20;;;;;;5057098;28;20088;-46
2023/04/30 06:33:56;;;;;;;8.77;3.40;;;8.70;77.20;;;;;;5043561;28;20033;-44
2023/04/30 06:36:26;;;;;;;7.53;3.53;;;8.70;76.40;;;;;;5050539;28;20104;-47
2023/04/30 06:38:52;;;;;;;9.85;2.65;;;8.80;76.70;;;;;;5057581;28;20033;-47
2023/04/30 06:41:18;;;;;;;10.65;3.05;;;8.80;76.10;;;;;;5058253;28;20349;-45
2023/04/30 06:43:45;;;;;;;6.35;2.60;;;8.80;75.50;;;;;;5055443;28;20025;-44
2023/04/30 06:46:13;;;;;;;8.73;4.30;;;8.80;74.80;;;;;;5066679;28;20438;-46
2023/04/30 06:48:41;;;;;;;9.32;5.32;;;8.80;74.00;;;;;;5057760;28;20115;-46
2023/04/30 06:51:14;;;;;;;5.35;2.38;;;8.80;72.70;;;;;;5052100;28;20569;-44
2023/04/30 06:53:42;;;;;;;5.38;2.47;;;8.70;70.70;;;;;;5054720;28;20039;-45
2023/04/30 06:56:13;;;;;;;10.75;3.15;;;8.80;71.10;;;;;;5048946;28;20037;-45
2023/04/30 06:58:41;;;;;;;11.52;2.83;;;8.90;73.10;;;;;;5044896;28;20033;-45
2023/04/30 07:01:08;;;;;;;9.75;3.13;;;9.00;72.10;;;;;;5047404;28;20059;-46
2023/04/30 07:03:36;;;;;;;5.95;2.25;;;9.10;70.90;;;;;;5055636;28;20466;-45
2023/04/30 07:06:04;;;;;;;10.65;2.70;;;9.20;69.60;;;;;;5057744;28;20056;-45
2023/04/30 07:08:30;;;;;;;7.25;2.92;;;9.30;70.00;;;;;;5057167;28;20323;-45
2023/04/30 07:10:57;;;;;;;9.23;2.40;;;9.40;68.40;;;;;;5051966;28;20040;-45
2023/04/30 07:13:25;;;;;;;5.28;2.20;;;9.50;68.90;;;;;;5072349;28;20025;-45
2023/04/30 07:15:51;;;;;;;5.90;2.50;;;9.60;67.60;;;;;;5058596;28;20032;-46
2023/04/30 07:18:18;;;;;;;7.53;2.30;;;9.70;66.70;;;;;;5053044;28;20021;-45
2023/04/30 07:20:46;;;;;;;5.93;2.47;;;9.90;67.40;;;;;;5054402;28;20350;-45
2023/04/30 07:23:14;;;;;;;9.55;2.90;;;10.20;68.00;;;;;;5049443;28;20095;-47
2023/04/30 07:25:40;;;;;;;7.22;2.72;;;10.40;65.50;;;;;;5060905;28;20113;-45
2023/04/30 07:28:08;;;;;;;7.70;2.90;;;10.90;64.50;;;;;;5035826;28;20036;-48
2023/04/30 07:30:36;;;;;;;8.07;2.75;;;11.00;64.90;;;;;;5050623;28;20025;-47
2023/04/30 07:33:03;;;;;;;7.90;1.95;;;11.30;62.30;;;;;;5053673;28;20032;-47
2023/04/30 07:35:31;;;;;;;5.13;1.95;;;11.50;60.10;;;;;;5036705;28;20465;-45
2023/04/30 07:37:58;;;;;;;4.45;2.10;;;11.70;58.70;;;;;;5049926;28;20033;-46
2023/04/30 07:40:24;;;;;;;7.10;2.33;;;11.80;59.60;;;;;;5045669;28;20025;-45
2023/04/30 07:42:55;;;;;;;7.65;2.25;;;11.90;59.20;;;;;;5052621;28;20416;-45
2023/04/30 07:45:21;;;;;;;7.05;2.00;;;12.60;58.50;;;;;;5051415;28;20036;-47
2023/04/30 07:47:48;;;;;;;8.23;1.77;;;13.20;55.80;;;;;;5035708;28;20028;-46
2023/04/30 07:50:15;;;;;;;5.95;2.28;;;13.50;52.80;;;;;;5044200;28;20485;-46
2023/04/30 07:52:42;;;;;;;6.60;2.10;;;14.10;54.20;;;;;;5049873;28;20021;-45
2023/04/30 07:55:09;;;;;;;5.50;2.15;;;14.70;53.90;;;;;;5047288;28;20047;-50
2023/04/30 07:57:40;;;;;;;5.50;1.90;;;14.60;50.50;;;;;;5056355;28;20032;-45
2023/04/30 08:00:06;;;;;;;6.28;2.38;;;14.90;50.30;;;;;;5055277;28;20021;-46
2023/04/30 08:02:36;;;;;;;4.63;2.17;;;15.00;48.60;;;;;;5040470;28;20036;-50
2023/04/30 08:05:04;;;;;;;7.93;2.10;;;15.00;49.90;;;;;;5038876;28;20422;-48
2023/04/30 08:07:31;;;;;;;5.05;1.80;;;15.20;48.50;;;;;;5052802;28;20375;-49
2023/04/30 08:09:58;;;;;;;4.78;2.00;;;15.30;50.00;;;;;;5054583;28;20103;-46
2023/04/30 08:12:25;;;;;;;6.97;2.78;;;15.60;47.70;;;;;;5050130;28;20021;-46
2023/04/30 08:15:15;;;;;;;7.57;2.85;;;15.30;48.60;;;;;;5053810;28;20040;-45
2023/04/30 08:17:42;;;;;;;6.53;2.08;;;15.60;49.00;;;;;;5016306;28;20037;-46
2023/04/30 08:20:08;;;;;;;8.43;2.15;;;15.60;47.40;;;;;;5038402;28;20687;-50
2023/04/30 08:22:33;;;;;;;6.85;2.03;;;15.20;47.20;;;;;;5068830;28;20044;-49
2023/04/30 08:25:01;;;;;;;7.45;2.30;;;15.30;49.10;;;;;;5047630;28;20029;-46
2023/04/30 08:27:31;;;;;;;7.57;2.38;;;14.80;49.90;;;;;;5046100;28;20025;-47
2023/04/30 08:29:59;;;;;;;13.48;3.15;;;14.40;48.70;;;;;;5052130;28;20450;-46
2023/04/30 08:32:27;;;;;;;6.20;2.60;;;13.90;51.90;;;;;;5059134;28;20032;-45
2023/04/30 08:34:54;;;;;;;5.90;1.85;;;13.40;52.90;;;;;;5045285;28;20362;-45
2023/04/30 08:37:19;;;;;;;8.32;2.65;;;13.40;52.00;;;;;;5043718;28;20089;-45
2023/04/30 08:39:46;;;;;;;4.32;1.90;;;13.60;53.20;;;;;;5061848;28;20028;-46
2023/04/30 08:42:14;;;;;;;7.20;2.53;;;13.60;53.00;;;;;;5069183;28;20539;-48
2023/04/30 08:44:47;;;;;;;9.32;2.83;;;13.70;53.80;;;;;;5040709;28;20029;-46
2023/04/30 08:47:20;;;;;;;4.47;2.15;;;14.00;53.80;;;;;;5055985;28;20025;-46
2023/04/30 08:49:49;;;;;;;5.28;2.20;;;14.10;52.90;;;;;;5037930;28;20107;-46
2023/04/30 08:52:17;;;;;;;7.32;2.67;;;13.80;53.10;;;;;;5043500;28;20025;-46
2023/04/30 08:54:43;;;;;;;6.18;2.47;;;14.10;51.10;;;;;;5018348;28;20048;-45
2023/04/30 08:57:13;;;;;;;7.00;2.25;;;14.30;52.10;;;;;;5044724;28;20433;-45
2023/04/30 08:59:38;;;;;;;6.13;1.90;;;14.40;54.00;;;;;;5052419;28;20044;-46
2023/04/30 09:02:09;;;;;;;9.90;2.60;;;14.20;52.40;;;;;;5051711;28;20097;-45
2023/04/30 09:04:37;;;;;;;5.30;1.85;;;13.80;52.10;;;;;;5046061;28;20068;-46
2023/04/30 09:07:05;;;;;;;5.20;2.22;;;13.70;52.70;;;;;;5067834;28;20088;-45
2023/04/30 09:09:37;;;;;;;4.80;2.10;;;13.30;54.60;;;;;;5045361;28;20032;-45
2023/04/30 09:12:27;;;;;;;8.55;2.05;;;13.70;57.10;;;;;;5032916;28;20131;-48
2023/04/30 09:15:04;;;;;;;8.85;2.00;;;14.00;52.80;;;;;;5049614;28;20029;-45
2023/04/30 09:17:41;;;;;;;6.68;1.90;;;14.40;52.50;;;;;;5054157;28;20086;-45
2023/04/30 09:20:07;;;;;;;3.83;1.83;;;14.50;54.90;;;;;;5063693;28;20461;-46
2023/04/30 09:22:35;;;;;;;9.65;2.38;;;14.40;51.20;;;;;;5029786;28;20470;-46
2023/04/30 09:25:05;;;;;;;8.70;2.22;;;14.80;50.90;;;;;;5030928;28;20035;-45
2023/04/30 09:27:35;;;;;;;7.22;2.47;;;15.10;51.10;;;;;;5025255;28;20037;-45
2023/04/30 09:30:00;;;;;;;5.60;1.65;;;15.20;53.00;;;;;;5033215;28;20033;-48
2023/04/30 09:32:30;;;;;;;4.78;1.80;;;15.50;50.80;;;;;;5048409;28;20025;-46
2023/04/30 09:34:58;;;;;;;8.88;2.22;;;15.80;49.00;;;;;;5030852;28;20022;-50
2023/04/30 09:37:38;;;;;;;8.25;2.38;;;15.90;48.80;;;;;;5026438;28;20037;-46
2023/04/30 09:40:06;;;;;;;4.93;2.05;;;16.10;50.40;;;;;;5052197;28;20458;-47
2023/04/30 09:42:32;;;;;;;4.80;1.65;;;16.40;51.20;;;;;;5050481;28;20025;-47
2023/04/30 09:44:58;;;;;;;6.45;1.90;;;16.70;48.40;;;;;;5051960;28;20021;-47
2023/04/30 09:47:30;;;;;;;6.53;2.00;;;16.60;46.50;;;;;;5022933;28;20064;-46
2023/04/30 09:49:59;;;;;;;7.18;2.15;;;16.60;49.10;;;;;;5019769;28;20040;-47
2023/04/30 09:52:26;;;;;;;4.05;1.67;;;16.20;47.80;;;;;;5039866;28;20036;-45
2023/04/30 09:54:52;;;;;;;7.38;2.95;;;16.40;47.10;;;;;;5017243;28;20032;-46
2023/04/30 09:57:22;;;;;;;5.05;1.90;;;15.90;48.80;;;;;;5049841;28;20120;-47
2023/04/30 09:59:51;;;;;;;;;;;15.70;49.50;;;;;;5030871;28;20060;-48
2023/04/30 10:02:19;;;;;;;5.95;2.10;;;15.70;48.80;;;;;;5032176;28;19916;-46
2023/04/30 10:04:52;;;;;;;5.05;1.95;;;15.60;50.10;;;;;;5014094;28;20129;-46
2023/04/30 10:07:20;;;;;;;7.88;2.33;;;15.40;48.50;;;;;;5026033;28;20041;-45
2023/04/30 10:10:00;;;;;;;6.82;2.05;;;15.60;49.70;;;;;;5034118;28;20094;-46
2023/04/30 10:12:51;;;;;;;6.13;2.30;;;15.70;51.90;;;;;;5034838;28;20045;-46
2023/04/30 10:15:47;;;;;;;8.77;2.28;;;15.40;50.50;;;;;;5019248;28;20026;-45
2023/04/30 10:18:33;;;;;;;8.73;2.38;;;15.40;48.80;;;;;;5029750;28;20031;-46
2023/04/30 10:21:09;;;;;;;5.80;1.92;;;15.40;50.60;;;;;;5035411;28;20048;-47
2023/04/30 10:23:45;;;;;;;6.55;2.22;;;15.70;52.10;;;;;;5051320;28;20037;-47
2023/04/30 10:26:15;;;;;;;7.25;2.15;;;15.60;51.80;;;;;;5034939;28;20032;-47
2023/04/30 10:28:45;;;;;;;7.50;2.22;;;15.50;51.30;;;;;;5035202;28;20033;-47
2023/04/30 10:31:13;;;;;;;8.40;1.98;;;15.50;51.00;;;;;;5035295;28;20095;-47
2023/04/30 10:34:08;;;;;;;6.55;1.95;;;15.70;51.40;;;;;;5035274;28;20063;-47
2023/04/30 10:36:59;;;;;;;6.85;1.90;;;15.50;50.80;;;;;;5035275;28;20048;-46
2023/04/30 10:39:29;;;;;;;6.72;2.50;;;15.40;50.90;;;;;;5053720;28;20094;-48
2023/04/30 10:42:06;;;;;;;5.28;1.80;;;15.50;51.60;;;;;;5047418;28;20032;-46
2023/04/30 10:44:35;;;;;;;6.80;1.83;;;15.10;49.50;;;;;;5005612;28;20537;-49
2023/04/30 10:47:05;;;;;;;5.65;1.85;;;15.20;52.10;;;;;;5042675;28;20060;-49
2023/04/30 10:49:32;;;;;;;7.00;2.45;;;15.20;51.80;;;;;;5034566;28;20486;-46
2023/04/30 10:52:03;;;;;;;6.30;1.75;;;15.00;50.50;;;;;;5031020;28;20801;-47
2023/04/30 10:54:49;;;;;;;8.02;2.35;;;14.90;52.20;;;;;;5035772;28;20406;-48
2023/04/30 10:57:18;;;;;;;6.13;1.90;;;14.50;52.30;;;;;;5066169;28;20072;-46
2023/04/30 11:00:10;;;;;;;7.03;2.10;;;14.70;53.20;;;;;;5053061;28;20505;-47
2023/04/30 11:02:44;;;;;;;7.18;2.42;;;14.80;52.30;;;;;;5061540;28;20036;-47
2023/04/30 11:05:14;;;;;;;8.75;1.83;;;14.90;51.70;;;;;;5026950;28;20091;-47
2023/04/30 11:07:58;;;;;;;;;;;15.00;53.80;;;;;;5054784;28;20041;-47
2023/04/30 11:10:27;;;;;;;8.23;2.53;;;15.20;52.60;;;;;;5050689;28;19912;-46
2023/04/30 11:12:54;;;;;;;7.03;2.10;;;15.20;52.10;;;;;;5027278;28;20033;-50
2023/04/30 11:15:26;;;;;;;9.23;2.80;;;15.00;51.70;;;;;;5054228;28;20059;-47
2023/04/30 11:17:59;;;;;;;10.30;2.55;;;14.80;53.70;;;;;;5035899;28;20032;-50
2023/04/30 11:20:53;;;;;;;8.18;2.25;;;14.80;51.70;;;;;;5037962;28;20049;-48
2023/04/30 11:23:32;;;;;;;7.32;2.00;;;14.60;51.50;;;;;;5069815;28;20036;-46
2023/04/30 11:25:59;;;;;;;9.82;2.10;;;14.60;53.10;;;;;;5043010;28;20048;-48
2023/04/30 11:28:27;;;;;;;9.05;2.50;;;14.70;51.80;;;;;;5057089;28;20477;-47
2023/04/30 11:30:58;;;;;;;7.43;2.28;;;14.40;55.30;;;;;;5025237;28;20041;-50
2023/04/30 11:33:27;;;;;;;8.82;2.35;;;14.50;52.70;;;;;;5029067;28;20067;-46
2023/04/30 11:35:56;;;;;;;7.90;2.45;;;14.40;53.50;;;;;;5036098;28;20086;-46
2023/04/30 11:38:42;;;;;;;8.15;2.83;;;14.60;53.90;;;;;;5067746;28;20094;-48
2023/04/30 11:41:13;;;;;;;6.40;2.38;;;14.40;53.90;;;;;;5044905;28;20120;-46
2023/04/30 11:43:40;;;;;;;6.32;2.22;;;14.20;53.10;;;;;;5042895;28;20143;-48
2023/04/30 11:46:10;;;;;;;7.15;2.17;;;14.30;54.80;;;;;;5053051;28;20100;-45
2023/04/30 11:48:39;;;;;;;9.45;2.35;;;14.40;52.90;;;;;;5025943;28;20382;-48
2023/04/30 11:51:25;;;;;;;6.68;2.80;;;14.40;53.60;;;;;;5023157;28;20029;-48
2023/04/30 11:53:52;;;;;;;6.35;2.70;;;14.40;52.60;;;;;;5049706;28;20032;-46
2023/04/30 11:56:27;;;;;;;7.50;2.05;;;14.40;53.30;;;;;;5053391;28;20029;-46
2023/04/30 11:58:56;;;;;;;6.22;2.92;;;14.50;55.70;;;;;;5041656;28;20043;-45
2023/04/30 12:01:35;;;;;;;8.85;2.78;;;14.50;52.90;;;;;;5041643;28;20024;-47
2023/04/30 12:04:02;;;;;;;;;;;14.30;52.70;;;;;;5058864;28;20391;-49
2023/04/30 12:06:31;;;;;;;7.18;2.10;;;14.30;56.80;;;;;;5056056;28;19975;-46
2023/04/30 12:09:07;;;;;;;6.85;2.40;;;14.30;56.70;;;;;;5053031;28;20029;-46
2023/04/30 12:11:36;;;;;;;10.18;2.67;;;14.30;55.70;;;;;;5042994;28;20534;-47
2023/04/30 12:14:09;;;;;;;6.97;3.55;;;14.40;51.80;;;;;;5037080;28;20085;-46
2023/04/30 12:17:02;;;;;;;8.35;2.92;;;14.20;54.90;;;;;;5055298;28;20032;-46
2023/04/30 12:19:30;;;;;;;10.27;2.50;;;14.20;54.80;;;;;;5052571;28;20036;-46
2023/04/30 12:22:00;;;;;;;9.05;2.17;;;14.30;55.80;;;;;;5054431;28;20016;-51
2023/04/30 12:24:27;;;;;;;6.38;2.75;;;14.40;53.90;;;;;;5048853;28;20397;-46
2023/04/30 12:26:54;;;;;;;9.75;2.10;;;14.40;54.00;;;;;;5067567;28;20056;-48
2023/04/30 12:29:21;;;;;;;5.63;2.78;;;14.50;54.00;;;;;;5056879;28;20359;-47
2023/04/30 12:31:51;;;;;;;7.65;2.53;;;14.40;54.30;;;;;;5032454;28;20066;-45
2023/04/30 12:34:18;;;;;;;8.30;2.65;;;14.40;56.10;;;;;;5060216;28;20086;-51
2023/04/30 12:36:44;;;;;;;5.93;2.65;;;14.40;54.80;;;;;;5047870;28;20033;-48
2023/04/30 12:39:19;;;;;;;8.38;3.00;;;14.60;54.40;;;;;;5041549;28;20032;-50
2023/04/30 12:41:50;;;;;;;7.20;2.65;;;14.50;52.20;;;;;;5063508;28;20028;-46
2023/04/30 12:44:24;;;;;;;9.32;2.67;;;14.50;56.20;;;;;;5035773;28;20025;-45
2023/04/30 12:46:55;;;;;;;5.65;2.60;;;14.50;55.90;;;;;;5033483;28;20033;-49
2023/04/30 12:49:30;;;;;;;8.43;2.85;;;14.30;56.60;;;;;;5048992;28;20374;-47
2023/04/30 12:52:07;;;;;;;6.97;2.25;;;14.40;59.70;;;;;;5049570;28;20017;-46
2023/04/30 12:54:39;;;;;;;7.40;3.15;;;14.10;57.10;;;;;;5030074;28;20083;-46
2023/04/30 12:57:08;;;;;;;8.45;2.47;;;13.90;57.90;;;;;;5042596;28;20071;-45
2023/04/30 12:59:55;;;;;;;6.57;2.37;;;13.90;58.20;;;;;;5035337;28;20033;-46
2023/04/30 13:02:27;;;;;;;8.02;2.40;;;13.70;58.30;;;;;;5017005;28;20030;-46
2023/04/30 13:04:55;;;;;;;7.53;2.90;;;13.80;58.40;;;;;;5031201;28;20043;-47
2023/04/30 13:07:22;;;;;;;9.10;3.25;;;13.70;58.00;;;;;;5049235;28;20478;-49